sensor_id;sensor_type;location;lat;lon;timestamp;P1;durP1;ratioP1;P2;durP2;ratioP2
10100;SDS011;5090;51.258;4.436;2023-04-06T00:02:16;22.40;;;12.87;;
10100;SDS011;5090;51.258;4.436;2023-04-06T00:04:44;24.70;;;12.93;;
10100;SDS011;5090;51.258;4.436;2023-04-06T00:07:13;25.57;;;12.73;;
10100;SDS011;5090;51.258;4.436;2023-04-06T00:09:41;23.67;;;13.20;;
10100;SDS011;5090;51.258;4.436;2023-04-06T00:12:10;24.97;;;13.33;;
10100;SDS011;5090;51.258;4.436;2023-04-06T00:14:38;24.90;;;12.90;;
10100;SDS011;5090;51.258;4.436;2023-04-06T00:17:06;22.67;;;13.40;;
10100;SDS011;5090;51.258;4.436;2023-04-06T00:19:34;25.20;;;12.37;;
10100;SDS011;5090;51.258;4.436;2023-04-06T00:22:03;24.23;;;12.57;;
10100;SDS011;5090;51.258;4.436;2023-04-06T00:24:31;22.13;;;13.60;;
10100;SDS011;5090;51.258;4.436;2023-04-06T00:26:59;21.03;;;12.50;;
10100;SDS011;5090;51.258;4.436;2023-04-06T00:29:27;22.67;;;12.40;;
10100;SDS011;5090;51.258;4.436;2023-04-06T00:31:55;21.87;;;13.40;;
10100;SDS011;5090;51.258;4.436;2023-04-06T00:34:24;24.90;;;13.20;;
10100;SDS011;5090;51.258;4.436;2023-04-06T00:36:52;23.87;;;12.83;;
10100;SDS011;5090;51.258;4.436;2023-04-06T00:39:20;25.83;;;12.90;;
10100;SDS011;5090;51.258;4.436;2023-04-06T00:41:50;21.43;;;13.17;;
10100;SDS011;5090;51.258;4.436;2023-04-06T00:44:17;21.30;;;12.47;;
10100;SDS011;5090;51.258;4.436;2023-04-06T00:46:45;27.13;;;12.97;;
10100;SDS011;5090;51.258;4.436;2023-04-06T00:49:13;21.40;;;12.50;;
10100;SDS011;5090;51.258;4.436;2023-04-06T00:51:41;23.23;;;13.30;;
10100;SDS011;5090;51.258;4.436;2023-04-06T00:54:10;22.60;;;12.13;;
10100;SDS011;5090;51.258;4.436;2023-04-06T00:56:38;26.23;;;12.33;;
10100;SDS011;5090;51.258;4.436;2023-04-06T00:59:06;21.50;;;11.70;;
10100;SDS011;5090;51.258;4.436;2023-04-06T01:01:34;20.60;;;11.83;;
10100;SDS011;5090;51.258;4.436;2023-04-06T01:04:02;20.50;;;11.70;;
10100;SDS011;5090;51.258;4.436;2023-04-06T01:06:31;24.87;;;12.57;;
10100;SDS011;5090;51.258;4.436;2023-04-06T01:08:59;21.80;;;11.77;;
10100;SDS011;5090;51.258;4.436;2023-04-06T01:11:27;20.50;;;12.00;;
10100;SDS011;5090;51.258;4.436;2023-04-06T01:13:56;27.00;;;12.47;;
10100;SDS011;5090;51.258;4.436;2023-04-06T01:16:24;23.80;;;12.20;;
10100;SDS011;5090;51.258;4.436;2023-04-06T01:18:52;20.20;;;11.83;;
10100;SDS011;5090;51.258;4.436;2023-04-06T01:21:20;22.93;;;12.00;;
10100;SDS011;5090;51.258;4.436;2023-04-06T01:23:49;22.33;;;12.40;;
10100;SDS011;5090;51.258;4.436;2023-04-06T01:26:17;24.43;;;12.37;;
10100;SDS011;5090;51.258;4.436;2023-04-06T01:28:45;23.07;;;12.40;;
10100;SDS011;5090;51.258;4.436;2023-04-06T01:31:13;19.97;;;11.33;;
10100;SDS011;5090;51.258;4.436;2023-04-06T01:33:42;19.53;;;11.57;;
10100;SDS011;5090;51.258;4.436;2023-04-06T01:36:10;22.27;;;12.70;;
10100;SDS011;5090;51.258;4.436;2023-04-06T01:38:38;23.90;;;11.93;;
10100;SDS011;5090;51.258;4.436;2023-04-06T01:41:07;22.70;;;11.20;;
10100;SDS011;5090;51.258;4.436;2023-04-06T01:43:35;22.37;;;11.80;;
10100;SDS011;5090;51.258;4.436;2023-04-06T01:46:03;22.03;;;11.90;;
10100;SDS011;5090;51.258;4.436;2023-04-06T01:48:31;21.63;;;11.40;;
10100;SDS011;5090;51.258;4.436;2023-04-06T01:51:00;19.70;;;11.60;;
10100;SDS011;5090;51.258;4.436;2023-04-06T01:53:28;22.40;;;12.03;;
10100;SDS011;5090;51.258;4.436;2023-04-06T01:55:56;20.60;;;11.00;;
10100;SDS011;5090;51.258;4.436;2023-04-06T01:58:25;20.60;;;12.20;;
10100;SDS011;5090;51.258;4.436;2023-04-06T02:00:53;17.10;;;10.93;;
10100;SDS011;5090;51.258;4.436;2023-04-06T02:03:21;15.93;;;10.37;;
10100;SDS011;5090;51.258;4.436;2023-04-06T02:05:50;18.17;;;10.80;;
10100;SDS011;5090;51.258;4.436;2023-04-06T02:08:18;21.47;;;10.83;;
10100;SDS011;5090;51.258;4.436;2023-04-06T02:10:46;18.70;;;10.50;;
10100;SDS011;5090;51.258;4.436;2023-04-06T02:13:15;17.33;;;10.50;;
10100;SDS011;5090;51.258;4.436;2023-04-06T02:15:43;15.97;;;9.80;;
10100;SDS011;5090;51.258;4.436;2023-04-06T02:18:11;20.90;;;10.67;;
10100;SDS011;5090;51.258;4.436;2023-04-06T02:20:39;22.30;;;11.00;;
10100;SDS011;5090;51.258;4.436;2023-04-06T02:23:08;21.00;;;11.57;;
10100;SDS011;5090;51.258;4.436;2023-04-06T02:25:36;18.87;;;11.00;;
10100;SDS011;5090;51.258;4.436;2023-04-06T02:28:04;19.80;;;10.47;;
10100;SDS011;5090;51.258;4.436;2023-04-06T02:30:32;18.57;;;11.03;;
10100;SDS011;5090;51.258;4.436;2023-04-06T02:33:01;17.57;;;11.03;;
10100;SDS011;5090;51.258;4.436;2023-04-06T02:35:30;19.40;;;10.83;;
10100;SDS011;5090;51.258;4.436;2023-04-06T02:37:57;18.90;;;10.53;;
10100;SDS011;5090;51.258;4.436;2023-04-06T02:40:25;21.30;;;11.33;;
10100;SDS011;5090;51.258;4.436;2023-04-06T02:42:54;19.20;;;10.30;;
10100;SDS011;5090;51.258;4.436;2023-04-06T02:45:22;19.23;;;10.30;;
10100;SDS011;5090;51.258;4.436;2023-04-06T02:47:50;19.23;;;10.23;;
10100;SDS011;5090;51.258;4.436;2023-04-06T02:50:18;16.33;;;9.70;;
10100;SDS011;5090;51.258;4.436;2023-04-06T02:52:46;20.87;;;11.20;;
10100;SDS011;5090;51.258;4.436;2023-04-06T02:55:15;20.27;;;10.97;;
10100;SDS011;5090;51.258;4.436;2023-04-06T02:57:43;19.50;;;11.57;;
10100;SDS011;5090;51.258;4.436;2023-04-06T03:00:11;19.60;;;10.27;;
10100;SDS011;5090;51.258;4.436;2023-04-06T03:02:40;18.00;;;10.23;;
10100;SDS011;5090;51.258;4.436;2023-04-06T03:05:08;18.67;;;11.63;;
10100;SDS011;5090;51.258;4.436;2023-04-06T03:07:36;22.10;;;11.23;;
10100;SDS011;5090;51.258;4.436;2023-04-06T03:10:05;19.60;;;11.93;;
10100;SDS011;5090;51.258;4.436;2023-04-06T03:12:33;18.83;;;11.97;;
10100;SDS011;5090;51.258;4.436;2023-04-06T03:15:01;21.40;;;10.90;;
10100;SDS011;5090;51.258;4.436;2023-04-06T03:17:30;22.57;;;11.07;;
10100;SDS011;5090;51.258;4.436;2023-04-06T03:19:58;21.47;;;11.40;;
10100;SDS011;5090;51.258;4.436;2023-04-06T03:22:26;18.47;;;11.17;;
10100;SDS011;5090;51.258;4.436;2023-04-06T03:24:55;19.40;;;11.27;;
10100;SDS011;5090;51.258;4.436;2023-04-06T03:27:23;17.90;;;10.47;;
10100;SDS011;5090;51.258;4.436;2023-04-06T03:29:51;18.07;;;11.80;;
10100;SDS011;5090;51.258;4.436;2023-04-06T03:32:19;20.33;;;10.43;;
10100;SDS011;5090;51.258;4.436;2023-04-06T03:34:48;17.30;;;10.80;;
10100;SDS011;5090;51.258;4.436;2023-04-06T03:37:16;19.73;;;11.30;;
10100;SDS011;5090;51.258;4.436;2023-04-06T03:39:44;20.93;;;11.20;;
10100;SDS011;5090;51.258;4.436;2023-04-06T03:42:13;18.00;;;11.00;;
10100;SDS011;5090;51.258;4.436;2023-04-06T03:44:41;22.17;;;10.53;;
10100;SDS011;5090;51.258;4.436;2023-04-06T03:47:09;20.60;;;11.07;;
10100;SDS011;5090;51.258;4.436;2023-04-06T03:49:37;21.33;;;11.47;;
10100;SDS011;5090;51.258;4.436;2023-04-06T03:52:05;17.47;;;10.50;;
10100;SDS011;5090;51.258;4.436;2023-04-06T03:54:34;22.47;;;11.60;;
10100;SDS011;5090;51.258;4.436;2023-04-06T03:57:02;18.43;;;10.57;;
10100;SDS011;5090;51.258;4.436;2023-04-06T03:59:30;20.90;;;12.00;;
10100;SDS011;5090;51.258;4.436;2023-04-06T04:01:58;21.80;;;11.27;;
10100;SDS011;5090;51.258;4.436;2023-04-06T04:04:26;21.13;;;11.20;;
10100;SDS011;5090;51.258;4.436;2023-04-06T04:06:55;20.40;;;11.57;;
10100;SDS011;5090;51.258;4.436;2023-04-06T04:09:23;15.47;;;10.37;;
10100;SDS011;5090;51.258;4.436;2023-04-06T04:11:51;17.23;;;10.17;;
10100;SDS011;5090;51.258;4.436;2023-04-06T04:14:20;19.13;;;10.97;;
10100;SDS011;5090;51.258;4.436;2023-04-06T04:16:50;17.13;;;10.30;;
10100;SDS011;5090;51.258;4.436;2023-04-06T04:19:18;16.33;;;9.83;;
10100;SDS011;5090;51.258;4.436;2023-04-06T04:21:46;19.40;;;10.63;;
10100;SDS011;5090;51.258;4.436;2023-04-06T04:24:14;17.50;;;10.33;;
10100;SDS011;5090;51.258;4.436;2023-04-06T04:26:42;17.73;;;10.00;;
10100;SDS011;5090;51.258;4.436;2023-04-06T04:29:11;19.73;;;10.53;;
10100;SDS011;5090;51.258;4.436;2023-04-06T04:31:39;22.90;;;11.57;;
10100;SDS011;5090;51.258;4.436;2023-04-06T04:34:07;24.63;;;11.43;;
10100;SDS011;5090;51.258;4.436;2023-04-06T04:36:35;22.37;;;11.00;;
10100;SDS011;5090;51.258;4.436;2023-04-06T04:39:04;17.73;;;11.20;;
10100;SDS011;5090;51.258;4.436;2023-04-06T04:41:32;18.30;;;11.57;;
10100;SDS011;5090;51.258;4.436;2023-04-06T04:44:00;23.80;;;11.37;;
10100;SDS011;5090;51.258;4.436;2023-04-06T04:46:28;20.13;;;11.33;;
10100;SDS011;5090;51.258;4.436;2023-04-06T04:48:57;23.33;;;12.90;;
10100;SDS011;5090;51.258;4.436;2023-04-06T04:51:25;21.97;;;11.30;;
10100;SDS011;5090;51.258;4.436;2023-04-06T04:53:53;21.73;;;11.87;;
10100;SDS011;5090;51.258;4.436;2023-04-06T04:56:21;26.10;;;11.77;;
10100;SDS011;5090;51.258;4.436;2023-04-06T04:58:50;21.63;;;12.17;;
10100;SDS011;5090;51.258;4.436;2023-04-06T05:01:18;25.77;;;12.43;;
10100;SDS011;5090;51.258;4.436;2023-04-06T05:03:46;19.70;;;12.47;;
10100;SDS011;5090;51.258;4.436;2023-04-06T05:06:14;27.67;;;12.67;;
10100;SDS011;5090;51.258;4.436;2023-04-06T05:08:42;22.53;;;12.53;;
10100;SDS011;5090;51.258;4.436;2023-04-06T05:11:11;22.17;;;12.60;;
10100;SDS011;5090;51.258;4.436;2023-04-06T05:13:39;25.17;;;13.77;;
10100;SDS011;5090;51.258;4.436;2023-04-06T05:16:07;24.63;;;13.23;;
10100;SDS011;5090;51.258;4.436;2023-04-06T05:18:35;23.87;;;12.47;;
10100;SDS011;5090;51.258;4.436;2023-04-06T05:21:04;35.73;;;13.80;;
10100;SDS011;5090;51.258;4.436;2023-04-06T05:23:32;24.70;;;12.23;;
10100;SDS011;5090;51.258;4.436;2023-04-06T05:26:00;25.50;;;13.00;;
10100;SDS011;5090;51.258;4.436;2023-04-06T05:28:28;25.13;;;13.00;;
10100;SDS011;5090;51.258;4.436;2023-04-06T05:30:56;24.43;;;12.87;;
10100;SDS011;5090;51.258;4.436;2023-04-06T05:33:25;26.63;;;14.03;;
10100;SDS011;5090;51.258;4.436;2023-04-06T05:35:53;26.77;;;14.83;;
10100;SDS011;5090;51.258;4.436;2023-04-06T05:38:21;31.97;;;14.13;;
10100;SDS011;5090;51.258;4.436;2023-04-06T05:40:54;26.00;;;13.77;;
10100;SDS011;5090;51.258;4.436;2023-04-06T05:43:22;25.63;;;14.50;;
10100;SDS011;5090;51.258;4.436;2023-04-06T05:45:50;26.90;;;13.70;;
10100;SDS011;5090;51.258;4.436;2023-04-06T05:48:18;29.80;;;14.77;;
10100;SDS011;5090;51.258;4.436;2023-04-06T05:50:49;26.40;;;14.60;;
10100;SDS011;5090;51.258;4.436;2023-04-06T05:53:17;27.87;;;15.70;;
10100;SDS011;5090;51.258;4.436;2023-04-06T05:55:45;27.47;;;14.67;;
10100;SDS011;5090;51.258;4.436;2023-04-06T05:58:13;28.60;;;15.23;;
10100;SDS011;5090;51.258;4.436;2023-04-06T06:00:41;28.07;;;15.33;;
10100;SDS011;5090;51.258;4.436;2023-04-06T06:03:09;26.60;;;15.27;;
10100;SDS011;5090;51.258;4.436;2023-04-06T06:05:38;27.27;;;15.50;;
10100;SDS011;5090;51.258;4.436;2023-04-06T06:08:06;34.47;;;16.70;;
10100;SDS011;5090;51.258;4.436;2023-04-06T06:10:34;33.23;;;15.30;;
10100;SDS011;5090;51.258;4.436;2023-04-06T06:13:03;33.73;;;16.47;;
10100;SDS011;5090;51.258;4.436;2023-04-06T06:15:31;27.73;;;16.47;;
10100;SDS011;5090;51.258;4.436;2023-04-06T06:17:59;29.97;;;17.60;;
10100;SDS011;5090;51.258;4.436;2023-04-06T06:20:27;28.27;;;16.50;;
10100;SDS011;5090;51.258;4.436;2023-04-06T06:22:55;26.07;;;16.80;;
10100;SDS011;5090;51.258;4.436;2023-04-06T06:25:24;30.30;;;16.90;;
10100;SDS011;5090;51.258;4.436;2023-04-06T06:27:52;27.33;;;16.87;;
10100;SDS011;5090;51.258;4.436;2023-04-06T06:30:20;27.10;;;17.00;;
10100;SDS011;5090;51.258;4.436;2023-04-06T06:32:49;26.70;;;17.50;;
10100;SDS011;5090;51.258;4.436;2023-04-06T06:35:17;29.70;;;17.67;;
10100;SDS011;5090;51.258;4.436;2023-04-06T06:37:45;32.57;;;17.77;;
10100;SDS011;5090;51.258;4.436;2023-04-06T06:40:13;31.03;;;18.33;;
10100;SDS011;5090;51.258;4.436;2023-04-06T06:42:41;31.53;;;18.03;;
10100;SDS011;5090;51.258;4.436;2023-04-06T06:45:11;28.87;;;18.17;;
10100;SDS011;5090;51.258;4.436;2023-04-06T06:47:39;40.07;;;18.60;;
10100;SDS011;5090;51.258;4.436;2023-04-06T06:50:07;31.27;;;18.33;;
10100;SDS011;5090;51.258;4.436;2023-04-06T06:52:35;32.13;;;18.07;;
10100;SDS011;5090;51.258;4.436;2023-04-06T06:55:04;26.37;;;17.07;;
10100;SDS011;5090;51.258;4.436;2023-04-06T06:57:32;31.23;;;18.87;;
10100;SDS011;5090;51.258;4.436;2023-04-06T07:00:00;34.03;;;18.23;;
10100;SDS011;5090;51.258;4.436;2023-04-06T07:02:28;29.70;;;17.77;;
10100;SDS011;5090;51.258;4.436;2023-04-06T07:04:57;28.57;;;18.80;;
10100;SDS011;5090;51.258;4.436;2023-04-06T07:07:25;32.23;;;17.73;;
10100;SDS011;5090;51.258;4.436;2023-04-06T07:09:53;27.53;;;16.23;;
10100;SDS011;5090;51.258;4.436;2023-04-06T07:12:21;28.83;;;16.33;;
10100;SDS011;5090;51.258;4.436;2023-04-06T07:14:50;24.17;;;15.40;;
10100;SDS011;5090;51.258;4.436;2023-04-06T07:17:18;23.13;;;14.80;;
10100;SDS011;5090;51.258;4.436;2023-04-06T07:19:46;26.37;;;14.90;;
10100;SDS011;5090;51.258;4.436;2023-04-06T07:22:14;25.73;;;15.10;;
10100;SDS011;5090;51.258;4.436;2023-04-06T07:24:42;22.50;;;13.77;;
10100;SDS011;5090;51.258;4.436;2023-04-06T07:27:11;26.07;;;14.83;;
10100;SDS011;5090;51.258;4.436;2023-04-06T07:29:39;22.17;;;14.17;;
10100;SDS011;5090;51.258;4.436;2023-04-06T07:32:07;19.83;;;11.33;;
10100;SDS011;5090;51.258;4.436;2023-04-06T07:34:35;24.43;;;11.33;;
10100;SDS011;5090;51.258;4.436;2023-04-06T07:37:03;19.83;;;11.87;;
10100;SDS011;5090;51.258;4.436;2023-04-06T07:39:33;17.13;;;11.03;;
10100;SDS011;5090;51.258;4.436;2023-04-06T07:42:01;18.77;;;12.27;;
10100;SDS011;5090;51.258;4.436;2023-04-06T07:44:29;20.07;;;11.37;;
10100;SDS011;5090;51.258;4.436;2023-04-06T07:46:57;22.13;;;11.10;;
10100;SDS011;5090;51.258;4.436;2023-04-06T07:49:25;19.10;;;11.90;;
10100;SDS011;5090;51.258;4.436;2023-04-06T07:51:54;18.83;;;11.83;;
10100;SDS011;5090;51.258;4.436;2023-04-06T07:54:22;17.00;;;11.27;;
10100;SDS011;5090;51.258;4.436;2023-04-06T07:56:50;19.30;;;11.10;;
10100;SDS011;5090;51.258;4.436;2023-04-06T07:59:18;22.97;;;11.00;;
10100;SDS011;5090;51.258;4.436;2023-04-06T08:01:46;14.87;;;9.40;;
10100;SDS011;5090;51.258;4.436;2023-04-06T08:04:15;17.37;;;9.70;;
10100;SDS011;5090;51.258;4.436;2023-04-06T08:06:43;16.80;;;9.93;;
10100;SDS011;5090;51.258;4.436;2023-04-06T08:09:11;15.80;;;9.93;;
10100;SDS011;5090;51.258;4.436;2023-04-06T08:11:39;14.40;;;9.23;;
10100;SDS011;5090;51.258;4.436;2023-04-06T08:14:08;15.43;;;9.13;;
10100;SDS011;5090;51.258;4.436;2023-04-06T08:16:36;13.70;;;9.33;;
10100;SDS011;5090;51.258;4.436;2023-04-06T08:19:04;15.17;;;9.00;;
10100;SDS011;5090;51.258;4.436;2023-04-06T08:21:33;14.63;;;8.87;;
10100;SDS011;5090;51.258;4.436;2023-04-06T08:24:01;13.77;;;8.80;;
10100;SDS011;5090;51.258;4.436;2023-04-06T08:26:30;15.57;;;9.50;;
10100;SDS011;5090;51.258;4.436;2023-04-06T08:28:58;15.80;;;8.50;;
10100;SDS011;5090;51.258;4.436;2023-04-06T08:31:26;12.83;;;7.70;;
10100;SDS011;5090;51.258;4.436;2023-04-06T08:33:54;14.47;;;7.77;;
10100;SDS011;5090;51.258;4.436;2023-04-06T08:36:23;13.67;;;8.90;;
10100;SDS011;5090;51.258;4.436;2023-04-06T08:38:51;15.10;;;8.67;;
10100;SDS011;5090;51.258;4.436;2023-04-06T08:41:19;16.67;;;10.07;;
10100;SDS011;5090;51.258;4.436;2023-04-06T08:43:49;14.70;;;8.37;;
10100;SDS011;5090;51.258;4.436;2023-04-06T08:46:17;14.87;;;8.33;;
10100;SDS011;5090;51.258;4.436;2023-04-06T08:48:45;15.00;;;8.90;;
10100;SDS011;5090;51.258;4.436;2023-04-06T08:51:13;17.10;;;8.97;;
10100;SDS011;5090;51.258;4.436;2023-04-06T08:53:41;15.27;;;8.63;;
10100;SDS011;5090;51.258;4.436;2023-04-06T08:56:10;14.73;;;8.33;;
10100;SDS011;5090;51.258;4.436;2023-04-06T08:58:38;14.37;;;9.17;;
10100;SDS011;5090;51.258;4.436;2023-04-06T09:01:07;11.07;;;7.30;;
10100;SDS011;5090;51.258;4.436;2023-04-06T09:03:36;10.37;;;7.57;;
10100;SDS011;5090;51.258;4.436;2023-04-06T09:06:03;16.07;;;7.67;;
10100;SDS011;5090;51.258;4.436;2023-04-06T09:08:32;14.13;;;7.73;;
10100;SDS011;5090;51.258;4.436;2023-04-06T09:11:00;10.63;;;6.60;;
10100;SDS011;5090;51.258;4.436;2023-04-06T09:13:28;11.73;;;7.23;;
10100;SDS011;5090;51.258;4.436;2023-04-06T09:15:58;10.50;;;6.40;;
10100;SDS011;5090;51.258;4.436;2023-04-06T09:18:31;9.93;;;6.33;;
10100;SDS011;5090;51.258;4.436;2023-04-06T09:21:01;12.17;;;6.43;;
10100;SDS011;5090;51.258;4.436;2023-04-06T09:23:28;12.73;;;6.27;;
10100;SDS011;5090;51.258;4.436;2023-04-06T09:28:40;9.80;;;6.27;;
10100;SDS011;5090;51.258;4.436;2023-04-06T09:30:59;12.70;;;6.23;;
10100;SDS011;5090;51.258;4.436;2023-04-06T09:33:27;9.27;;;5.53;;
10100;SDS011;5090;51.258;4.436;2023-04-06T09:35:56;11.50;;;6.33;;
10100;SDS011;5090;51.258;4.436;2023-04-06T09:38:24;11.67;;;5.83;;
10100;SDS011;5090;51.258;4.436;2023-04-06T09:40:53;8.87;;;6.63;;
10100;SDS011;5090;51.258;4.436;2023-04-06T09:43:25;11.37;;;6.00;;
10100;SDS011;5090;51.258;4.436;2023-04-06T09:45:53;9.90;;;6.00;;
10100;SDS011;5090;51.258;4.436;2023-04-06T09:48:21;9.93;;;6.20;;
10100;SDS011;5090;51.258;4.436;2023-04-06T09:50:49;13.60;;;6.33;;
10100;SDS011;5090;51.258;4.436;2023-04-06T09:53:18;9.80;;;5.63;;
10100;SDS011;5090;51.258;4.436;2023-04-06T09:55:45;11.23;;;6.13;;
10100;SDS011;5090;51.258;4.436;2023-04-06T09:58:15;10.07;;;6.30;;
10100;SDS011;5090;51.258;4.436;2023-04-06T10:00:44;9.60;;;6.50;;
10100;SDS011;5090;51.258;4.436;2023-04-06T10:03:16;11.10;;;6.03;;
10100;SDS011;5090;51.258;4.436;2023-04-06T10:05:43;10.07;;;5.70;;
10100;SDS011;5090;51.258;4.436;2023-04-06T10:08:10;12.13;;;7.13;;
10100;SDS011;5090;51.258;4.436;2023-04-06T10:10:38;11.23;;;6.97;;
10100;SDS011;5090;51.258;4.436;2023-04-06T10:13:06;10.87;;;6.53;;
10100;SDS011;5090;51.258;4.436;2023-04-06T10:15:35;11.57;;;6.97;;
10100;SDS011;5090;51.258;4.436;2023-04-06T10:18:03;11.70;;;7.20;;
10100;SDS011;5090;51.258;4.436;2023-04-06T10:20:36;11.10;;;7.30;;
10100;SDS011;5090;51.258;4.436;2023-04-06T10:23:12;16.23;;;7.20;;
10100;SDS011;5090;51.258;4.436;2023-04-06T10:25:30;10.40;;;6.67;;
10100;SDS011;5090;51.258;4.436;2023-04-06T10:27:58;15.63;;;7.30;;
10100;SDS011;5090;51.258;4.436;2023-04-06T10:30:26;13.00;;;7.20;;
10100;SDS011;5090;51.258;4.436;2023-04-06T10:32:54;13.93;;;8.63;;
10100;SDS011;5090;51.258;4.436;2023-04-06T10:35:23;12.57;;;8.30;;
10100;SDS011;5090;51.258;4.436;2023-04-06T10:37:52;11.50;;;7.43;;
10100;SDS011;5090;51.258;4.436;2023-04-06T10:40:22;13.07;;;8.03;;
10100;SDS011;5090;51.258;4.436;2023-04-06T10:42:49;11.07;;;7.77;;
10100;SDS011;5090;51.258;4.436;2023-04-06T10:45:19;12.93;;;8.03;;
10100;SDS011;5090;51.258;4.436;2023-04-06T10:47:47;12.33;;;8.53;;
10100;SDS011;5090;51.258;4.436;2023-04-06T10:50:15;15.00;;;8.63;;
10100;SDS011;5090;51.258;4.436;2023-04-06T10:52:44;13.00;;;8.60;;
10100;SDS011;5090;51.258;4.436;2023-04-06T10:55:13;13.27;;;7.70;;
10100;SDS011;5090;51.258;4.436;2023-04-06T10:57:41;12.40;;;8.43;;
10100;SDS011;5090;51.258;4.436;2023-04-06T11:00:11;11.63;;;7.83;;
10100;SDS011;5090;51.258;4.436;2023-04-06T11:02:38;12.17;;;8.40;;
10100;SDS011;5090;51.258;4.436;2023-04-06T11:05:07;15.37;;;8.60;;
10100;SDS011;5090;51.258;4.436;2023-04-06T11:10:21;12.50;;;8.10;;
10100;SDS011;5090;51.258;4.436;2023-04-06T11:12:54;11.57;;;8.63;;
10100;SDS011;5090;51.258;4.436;2023-04-06T11:15:23;16.40;;;8.43;;
10100;SDS011;5090;51.258;4.436;2023-04-06T11:17:51;12.40;;;8.07;;
10100;SDS011;5090;51.258;4.436;2023-04-06T11:20:20;14.53;;;9.17;;
10100;SDS011;5090;51.258;4.436;2023-04-06T11:22:49;12.47;;;8.70;;
10100;SDS011;5090;51.258;4.436;2023-04-06T11:25:16;13.23;;;9.10;;
10100;SDS011;5090;51.258;4.436;2023-04-06T11:27:45;13.70;;;8.77;;
10100;SDS011;5090;51.258;4.436;2023-04-06T11:30:13;11.83;;;8.30;;
10100;SDS011;5090;51.258;4.436;2023-04-06T11:32:42;12.80;;;8.60;;
10100;SDS011;5090;51.258;4.436;2023-04-06T11:35:11;12.53;;;9.07;;
10100;SDS011;5090;51.258;4.436;2023-04-06T11:37:38;14.13;;;9.50;;
10100;SDS011;5090;51.258;4.436;2023-04-06T11:40:07;13.27;;;9.10;;
10100;SDS011;5090;51.258;4.436;2023-04-06T11:42:36;14.73;;;9.20;;
10100;SDS011;5090;51.258;4.436;2023-04-06T11:45:05;15.13;;;9.20;;
10100;SDS011;5090;51.258;4.436;2023-04-06T11:47:34;17.00;;;9.70;;
10100;SDS011;5090;51.258;4.436;2023-04-06T11:50:05;14.73;;;10.00;;
10100;SDS011;5090;51.258;4.436;2023-04-06T11:52:34;17.20;;;10.30;;
10100;SDS011;5090;51.258;4.436;2023-04-06T11:57:37;15.60;;;9.50;;
10100;SDS011;5090;51.258;4.436;2023-04-06T12:00:06;18.40;;;9.73;;
10100;SDS011;5090;51.258;4.436;2023-04-06T12:02:39;16.57;;;10.07;;
10100;SDS011;5090;51.258;4.436;2023-04-06T12:05:08;18.00;;;10.63;;
10100;SDS011;5090;51.258;4.436;2023-04-06T12:07:36;17.47;;;11.10;;
10100;SDS011;5090;51.258;4.436;2023-04-06T12:10:05;17.10;;;10.50;;
10100;SDS011;5090;51.258;4.436;2023-04-06T12:12:33;19.80;;;11.20;;
10100;SDS011;5090;51.258;4.436;2023-04-06T12:15:01;16.20;;;10.50;;
10100;SDS011;5090;51.258;4.436;2023-04-06T12:17:30;17.83;;;11.20;;
10100;SDS011;5090;51.258;4.436;2023-04-06T12:19:58;16.20;;;10.63;;
10100;SDS011;5090;51.258;4.436;2023-04-06T12:22:26;17.33;;;11.73;;
10100;SDS011;5090;51.258;4.436;2023-04-06T12:24:54;19.17;;;10.80;;
10100;SDS011;5090;51.258;4.436;2023-04-06T12:27:23;15.73;;;10.10;;
10100;SDS011;5090;51.258;4.436;2023-04-06T12:29:51;15.87;;;10.73;;
10100;SDS011;5090;51.258;4.436;2023-04-06T12:32:20;15.03;;;10.57;;
10100;SDS011;5090;51.258;4.436;2023-04-06T12:34:48;17.17;;;10.97;;
10100;SDS011;5090;51.258;4.436;2023-04-06T12:37:17;15.50;;;10.70;;
10100;SDS011;5090;51.258;4.436;2023-04-06T12:39:45;16.87;;;10.90;;
10100;SDS011;5090;51.258;4.436;2023-04-06T12:42:13;16.37;;;10.33;;
10100;SDS011;5090;51.258;4.436;2023-04-06T12:44:41;15.67;;;10.27;;
10100;SDS011;5090;51.258;4.436;2023-04-06T12:47:10;16.07;;;10.20;;
10100;SDS011;5090;51.258;4.436;2023-04-06T12:49:38;14.57;;;9.87;;
10100;SDS011;5090;51.258;4.436;2023-04-06T12:52:06;15.50;;;9.83;;
10100;SDS011;5090;51.258;4.436;2023-04-06T12:54:34;14.87;;;10.37;;
10100;SDS011;5090;51.258;4.436;2023-04-06T12:57:03;14.27;;;9.33;;
10100;SDS011;5090;51.258;4.436;2023-04-06T12:59:31;13.63;;;9.70;;
10100;SDS011;5090;51.258;4.436;2023-04-06T13:01:59;13.87;;;9.43;;
10100;SDS011;5090;51.258;4.436;2023-04-06T13:04:28;16.50;;;10.10;;
10100;SDS011;5090;51.258;4.436;2023-04-06T13:06:56;16.70;;;9.93;;
10100;SDS011;5090;51.258;4.436;2023-04-06T13:09:24;15.73;;;10.53;;
10100;SDS011;5090;51.258;4.436;2023-04-06T13:11:52;13.23;;;9.80;;
10100;SDS011;5090;51.258;4.436;2023-04-06T13:14:22;13.10;;;9.07;;
10100;SDS011;5090;51.258;4.436;2023-04-06T13:16:50;12.33;;;9.47;;
10100;SDS011;5090;51.258;4.436;2023-04-06T13:19:18;16.43;;;10.03;;
10100;SDS011;5090;51.258;4.436;2023-04-06T13:21:47;13.93;;;9.77;;
10100;SDS011;5090;51.258;4.436;2023-04-06T13:24:15;16.57;;;9.47;;
10100;SDS011;5090;51.258;4.436;2023-04-06T13:26:44;14.17;;;10.23;;
10100;SDS011;5090;51.258;4.436;2023-04-06T13:29:12;13.13;;;9.50;;
10100;SDS011;5090;51.258;4.436;2023-04-06T13:31:40;16.83;;;9.90;;
10100;SDS011;5090;51.258;4.436;2023-04-06T13:34:09;13.77;;;9.53;;
10100;SDS011;5090;51.258;4.436;2023-04-06T13:36:37;13.57;;;8.87;;
10100;SDS011;5090;51.258;4.436;2023-04-06T13:39:06;12.03;;;9.03;;
10100;SDS011;5090;51.258;4.436;2023-04-06T13:41:34;12.43;;;8.37;;
10100;SDS011;5090;51.258;4.436;2023-04-06T13:44:02;13.43;;;9.40;;
10100;SDS011;5090;51.258;4.436;2023-04-06T13:46:31;12.20;;;9.23;;
10100;SDS011;5090;51.258;4.436;2023-04-06T13:48:59;11.83;;;9.30;;
10100;SDS011;5090;51.258;4.436;2023-04-06T13:51:27;13.50;;;9.80;;
10100;SDS011;5090;51.258;4.436;2023-04-06T13:53:55;14.53;;;9.67;;
10100;SDS011;5090;51.258;4.436;2023-04-06T13:56:24;16.73;;;9.87;;
10100;SDS011;5090;51.258;4.436;2023-04-06T13:58:53;14.30;;;10.33;;
10100;SDS011;5090;51.258;4.436;2023-04-06T14:01:20;15.80;;;11.47;;
10100;SDS011;5090;51.258;4.436;2023-04-06T14:03:48;14.03;;;10.40;;
10100;SDS011;5090;51.258;4.436;2023-04-06T14:06:18;13.93;;;10.70;;
10100;SDS011;5090;51.258;4.436;2023-04-06T14:08:46;16.23;;;10.77;;
10100;SDS011;5090;51.258;4.436;2023-04-06T14:11:14;15.47;;;10.40;;
10100;SDS011;5090;51.258;4.436;2023-04-06T14:13:43;15.73;;;10.83;;
10100;SDS011;5090;51.258;4.436;2023-04-06T14:16:11;17.47;;;11.10;;
10100;SDS011;5090;51.258;4.436;2023-04-06T14:18:39;17.03;;;10.93;;
10100;SDS011;5090;51.258;4.436;2023-04-06T14:21:07;16.93;;;11.63;;
10100;SDS011;5090;51.258;4.436;2023-04-06T14:23:36;14.80;;;10.90;;
10100;SDS011;5090;51.258;4.436;2023-04-06T14:26:04;16.47;;;11.90;;
10100;SDS011;5090;51.258;4.436;2023-04-06T14:28:32;18.33;;;12.37;;
10100;SDS011;5090;51.258;4.436;2023-04-06T14:31:01;17.27;;;11.37;;
10100;SDS011;5090;51.258;4.436;2023-04-06T14:33:29;16.17;;;10.80;;
10100;SDS011;5090;51.258;4.436;2023-04-06T14:35:57;16.03;;;11.70;;
10100;SDS011;5090;51.258;4.436;2023-04-06T14:38:25;18.07;;;12.80;;
10100;SDS011;5090;51.258;4.436;2023-04-06T14:40:53;18.47;;;12.53;;
10100;SDS011;5090;51.258;4.436;2023-04-06T14:43:21;20.57;;;13.27;;
10100;SDS011;5090;51.258;4.436;2023-04-06T14:45:49;16.73;;;11.70;;
10100;SDS011;5090;51.258;4.436;2023-04-06T14:48:18;22.53;;;14.50;;
10100;SDS011;5090;51.258;4.436;2023-04-06T14:50:51;20.77;;;13.00;;
10100;SDS011;5090;51.258;4.436;2023-04-06T14:53:19;24.67;;;14.13;;